Map

Track Data

SID SEASON NUMBER BASIN SUBBASIN NAME ISO_TIME NATURE LAT LON WMO_WIND WMO_PRES WMO_AGENCY TRACK_TYPE DIST2LAND LANDFALL IFLAG USA_AGENCY USA_ATCF_ID USA_LAT USA_LON USA_RECORD USA_STATUS USA_WIND USA_PRES USA_SSHS USA_R34_NE USA_R34_SE USA_R34_SW USA_R34_NW USA_R50_NE USA_R50_SE USA_R50_SW USA_R50_NW USA_R64_NE USA_R64_SE USA_R64_SW USA_R64_NW USA_POCI USA_ROCI USA_RMW USA_EYE TOKYO_LAT TOKYO_LON TOKYO_GRADE TOKYO_WIND TOKYO_PRES TOKYO_R50_DIR TOKYO_R50_LONG TOKYO_R50_SHORT TOKYO_R30_DIR TOKYO_R30_LONG TOKYO_R30_SHORT TOKYO_LAND CMA_LAT CMA_LON CMA_CAT CMA_WIND CMA_PRES HKO_LAT HKO_LON HKO_CAT HKO_WIND HKO_PRES NEWDELHI_LAT NEWDELHI_LON NEWDELHI_GRADE NEWDELHI_WIND NEWDELHI_PRES NEWDELHI_CI NEWDELHI_DP NEWDELHI_POCI REUNION_LAT REUNION_LON REUNION_TYPE REUNION_WIND REUNION_PRES REUNION_TNUM REUNION_CI REUNION_RMW REUNION_R34_NE REUNION_R34_SE REUNION_R34_SW REUNION_R34_NW REUNION_R50_NE REUNION_R50_SE REUNION_R50_SW REUNION_R50_NW REUNION_R64_NE REUNION_R64_SE REUNION_R64_SW REUNION_R64_NW BOM_LAT BOM_LON BOM_TYPE BOM_WIND BOM_PRES BOM_TNUM BOM_CI BOM_RMW BOM_R34_NE BOM_R34_SE BOM_R34_SW BOM_R34_NW BOM_R50_NE BOM_R50_SE BOM_R50_SW BOM_R50_NW BOM_R64_NE BOM_R64_SE BOM_R64_SW BOM_R64_NW BOM_ROCI BOM_POCI BOM_EYE BOM_POS_METHOD BOM_PRES_METHOD NADI_LAT NADI_LON NADI_CAT NADI_WIND NADI_PRES WELLINGTON_LAT WELLINGTON_LON WELLINGTON_WIND WELLINGTON_PRES DS824_LAT DS824_LON DS824_STAGE DS824_WIND DS824_PRES TD9636_LAT TD9636_LON TD9636_STAGE TD9636_WIND TD9636_PRES TD9635_LAT TD9635_LON TD9635_WIND TD9635_PRES TD9635_ROCI NEUMANN_LAT NEUMANN_LON NEUMANN_CLASS NEUMANN_WIND NEUMANN_PRES MLC_LAT MLC_LON MLC_CLASS MLC_WIND MLC_PRES USA_GUST BOM_GUST BOM_GUST_PER REUNION_GUST REUNION_GUST_PER USA_SEAHGT USA_SEARAD_NE USA_SEARAD_SE USA_SEARAD_SW USA_SEARAD_NW STORM_SPEED STORM_DIR
1968036S19118 1968 13 SI WA ELLA 1968-02-04 23:00:00 NR -19.0000 118.000 main 156 148 __________O___ -1 -19.0000 118.000 1 13 247
1968036S19118 1968 13 SI WA ELLA 1968-02-05 00:00:00 TS -19.0874 117.786 main 148 148 O_________P___ jtwc_sh SH221968 -19.1000 117.800 -1 -19.0747 117.772 1 11 246
1968036S19118 1968 13 SI WA ELLA 1968-02-05 01:00:00 TS -19.1498 117.636 1001 bom main 154 144 P_____O___P___ SH221968 -19.1628 117.564 -1 -19.1000 118.200 1001 -19.1493 117.543 1 12 250
1968036S19118 1968 13 SI WA ELLA 1968-02-05 03:00:00 TS -19.2856 117.197 main 151 123 P_____P___P___ SH221968 -19.2906 117.093 -1 -19.2461 117.729 1001 -19.2980 117.087 1 12 251
1968036S19118 1968 13 SI WA ELLA 1968-02-05 06:00:00 TS -19.4834 116.607 main 123 123 O_____P__OP_O_ jtwc_sh SH221968 -19.5000 116.400 -1 -19.4440 117.029 1001 -19.4000 117.000 TC 30 1001 -19.5214 116.408 1 -19.4000 117.400 TC 25 1001 11 250
1968036S19118 1968 13 SI WA ELLA 1968-02-05 07:00:00 TS -19.5388 116.460 1001 bom main 124 116 P_____O__PP_P_ SH221968 -19.5775 116.175 -1 -19.5000 116.800 1001 -19.4415 116.782 TC 30 1001 -19.5963 116.184 1 -19.4440 117.154 TC 25 1001 11 251
1968036S19118 1968 13 SI WA ELLA 1968-02-05 09:00:00 TS -19.6594 116.058 main 118 118 P_____P__PP_P_ SH221968 -19.7423 115.735 -1 -19.5958 116.351 1001 -19.5300 116.346 TC 30 1001 -19.7472 115.738 1 -19.5358 116.670 TC 25 1001 12 252
1968036S19118 1968 13 SI WA ELLA 1968-02-05 11:00:00 TS -19.7820 115.660 main 133 133 P_____P__PO_P_ SH221968 -19.9139 115.308 -1 -19.6879 115.916 1001 -19.6363 115.914 TC 30 1001 -19.9000 115.300 1 -19.6401 116.213 TC 25 1001 12 251
1968036S19118 1968 13 SI WA ELLA 1968-02-05 12:00:00 TS -19.8529 115.448 main 139 139 O_____P__OP_O_ jtwc_sh SH221968 -20.0000 115.100 -1 -19.7400 115.706 1001 -19.7000 115.700 TC 30 1001 -19.9774 115.084 1 -19.7000 116.000 TC 25 1001 13 250
1968036S19118 1968 13 SI WA ELLA 1968-02-05 13:00:00 TS -19.9260 115.238 1001 bom main 152 142 P_____O__PP_P_ SH221968 -20.0806 114.886 -1 -19.8000 115.500 1001 -19.7726 115.488 TC 30 1001 -20.0560 114.871 1 -19.7664 115.799 TC 25 1001 13 248
1968036S19118 1968 13 SI WA ELLA 1968-02-05 15:00:00 TS -20.0861 114.829 main 160 159 P_____P__PP_P_ SH221968 -20.2424 114.470 -1 -19.9516 115.077 1001 -19.9427 115.074 TC 30 1001 -20.2181 114.456 1 -19.9196 115.427 TC 25 1001 12 245
1968036S19118 1968 13 SI WA ELLA 1968-02-05 18:00:00 TS -20.3614 114.256 main 158 135 O_____P__PP_O_ jtwc_sh SH221968 -20.5000 113.900 -1 -20.2363 114.470 1001 -20.2512 114.485 TC 30 1001 -20.4807 113.880 1 -20.2000 114.900 TC 25 1001 12 240
1968036S19118 1968 13 SI WA ELLA 1968-02-05 21:00:00 TS -20.6744 113.730 main 137 123 P_____P__PP_P_ SH221968 -20.7773 113.405 -1 -20.5780 113.915 1001 -20.6091 113.953 TC 30 1001 -20.7773 113.379 1 -20.5276 114.320 TC 25 1001 11 235
1968036S19118 1968 13 SI WA ELLA 1968-02-05 23:00:00 TS -20.9071 113.423 main 127 118 P_____P__PO_P_ SH221968 -20.9859 113.125 -1 -20.8311 113.587 1001 -20.8670 113.641 TC 30 1001 -21.0000 113.100 1 -20.7724 113.961 TC 25 1001 11 229
1968036S19118 1968 13 SI WA ELLA 1968-02-06 00:00:00 TS -21.0298 113.285 main 123 115 O_____P__OP_O_ jtwc_sh SH221968 -21.1000 113.000 -1 -20.9638 113.438 1001 -21.0000 113.500 TC 30 1001 -21.1150 112.973 1 -20.9000 113.800 TC 25 1001 11 226
1968036S19118 1968 13 SI WA ELLA 1968-02-06 01:00:00 TS -21.1527 113.153 1001 bom main 113 113 P_____O__PP_P_ SH221968 -21.2166 112.872 -1 -21.1000 113.300 1001 4 -21.1230 113.360 TC 29 1001 -21.2353 112.857 1 -21.0249 113.655 TC 25 1001 10 222
1968036S19118 1968 13 SI WA ELLA 1968-02-06 03:00:00 TS -21.4097 112.918 main 126 122 P_____P__PP_P_ SH221968 -21.4699 112.647 -1 -21.3630 113.041 1001 -21.3793 113.109 TC 28 1001 -21.4911 112.659 1 -21.2848 113.405 TC 25 1001 10 215
1968036S19118 1968 13 SI WA ELLA 1968-02-06 06:00:00 TS -21.8316 112.643 main 135 117 O_____P__PP_O_ jtwc_sh SH221968 -21.9000 112.400 -1 -21.7894 112.728 1001 -21.7892 112.800 TC 27 1002 -21.9112 112.433 1 -21.7000 113.100 TC 25 1001 10 206
1968036S19118 1968 13 SI WA ELLA 1968-02-06 09:00:00 TS -22.2925 112.448 main 127 123 P_____P__PP_P_ SH221968 -22.3849 112.270 -1 -22.2485 112.497 1002 -22.2295 112.566 TC 26 1002 -22.3720 112.276 1 -22.1350 112.812 TC 25 1001 10 199
1968036S19118 1968 13 SI WA ELLA 1968-02-06 11:00:00 TS -22.6178 112.356 main 123 123 P_____P__PO_P_ SH221968 -22.7280 112.223 -1 -22.5694 112.384 1002 -22.5399 112.448 TC 25 1002 -22.7000 112.200 1 -22.4417 112.661 TC 25 1001 10 193
1968036S19118 1968 13 SI WA ELLA 1968-02-06 12:00:00 TS -22.7839 112.318 main 135 135 O_____P__OP_O_ jtwc_sh SH221968 -22.9000 112.200 -1 -22.7336 112.338 1002 -22.7000 112.400 TC 25 1003 -22.8698 112.169 1 -22.6000 112.600 TC 25 1002 10 189
1968036S19118 1968 13 SI WA ELLA 1968-02-06 13:00:00 TS -22.9405 112.292 1003 bom main 137 137 P_____O__PP_P_ SH221968 -23.0701 112.174 -1 -22.9000 112.300 1003 -22.8634 112.359 TC 24 1003 -23.0431 112.141 1 -22.7609 112.547 TC 25 1002 10 188
1968036S19118 1968 13 SI WA ELLA 1968-02-06 15:00:00 TS -23.2668 112.243 main 148 134 P_____P__PP_P_ SH221968 -23.4051 112.110 -1 -23.2383 112.242 1003 -23.1990 112.295 TC 23 1003 -23.3991 112.096 1 -23.0924 112.470 TC 25 1002 10 186
1968036S19118 1968 13 SI WA ELLA 1968-02-06 18:00:00 TS -23.7626 112.205 main 132 123 O_____P__PP_O_ jtwc_sh SH221968 -23.9000 112.000 -1 -23.7573 112.196 1003 -23.7202 112.237 TC 22 1004 -23.9515 112.049 1 -23.6000 112.400 TC 25 1003 10 182
1968036S19118 1968 13 SI WA ELLA 1968-02-06 21:00:00 TS -24.2716 112.204 main 122 121 ______P__PP_P_ SH221968 -1 -24.2864 112.185 1004 -24.2564 112.211 TC 21 1004 -24.5184 112.017 1 -24.1025 112.348 TC 22 1003 10 181
1968036S19118 1968 13 SI WA ELLA 1968-02-06 23:00:00 TS -24.6167 112.201 main 123 123 ______P__PO_P_ SH221968 -1 -24.6426 112.190 1004 -24.6184 112.203 TC 20 1004 -24.9000 112.000 1 -24.4344 112.316 TC 20 1003 10 178
1968036S19118 1968 13 SI WA ELLA 1968-02-07 00:00:00 TS -24.7606 112.222 main 129 129 ______P__O__O_ -1 -24.8212 112.195 1004 -24.8000 112.200 TC 20 1005 1 -24.6000 112.300 TC 20 1004 12 182
1968036S19118 1968 13 SI WA ELLA 1968-02-07 01:00:00 NR -25.0000 112.200 1005 bom main 138 ______O_______ -1 -25.0000 112.200 1005 TC 1 TC 14 186

About IBTrACS Database

This database is a web-friendly format of International Best Track Archive for Climate Stewardship (IBTrACS), a global best track data archive curated by NOAA dating back to 1842.

Updated: 2021-10-21